Time;durP1;ratioP1;P1;durP2;ratioP2;P2;SDS_P1;SDS_P2;PMS_P1;PMS_P2;Temp;Humidity;BMP_temperature;BMP_pressure;BME280_temperature;BME280_humidity;BME280_pressure;Samples;Min_cycle;Max_cycle;Signal;HPM_P1;HPM_P2
2023/12/27 00:02:00;;;;;;;16.00;5.70;;;;;;;6.75;100.00;102021.28;4997914;28;20030;-86
2023/12/27 00:04:25;;;;;;;13.75;6.40;;;;;;;6.73;100.00;102029.13;4997824;28;20030;-86
2023/12/27 00:06:55;;;;;;;17.98;6.40;;;;;;;6.53;100.00;102007.19;4997840;28;20061;-86
2023/12/27 00:09:21;;;;;;;12.90;5.90;;;;;;;6.63;100.00;102018.09;4997646;28;20035;-86
2023/12/27 00:11:46;;;;;;;13.70;6.43;;;;;;;6.47;100.00;101978.03;4996344;28;20069;-86
2023/12/27 00:14:11;;;;;;;15.15;6.20;;;;;;;6.70;100.00;101999.19;4997583;28;20066;-86
2023/12/27 00:16:37;;;;;;;14.68;6.07;;;;;;;6.80;100.00;102014.50;4996275;28;20077;-86
2023/12/27 00:19:02;;;;;;;13.98;5.35;;;;;;;6.72;100.00;102010.63;4997176;28;20037;-85
2023/12/27 00:21:28;;;;;;;16.90;6.35;;;;;;;6.52;100.00;101983.50;4997363;28;20037;-86
2023/12/27 00:23:54;;;;;;;22.30;6.43;;;;;;;6.47;100.00;101995.53;4997316;28;20082;-85
2023/12/27 00:26:19;;;;;;;16.58;6.10;;;;;;;6.53;100.00;102022.94;4997047;28;20026;-87
2023/12/27 00:28:45;;;;;;;17.40;6.50;;;;;;;6.56;100.00;102010.81;4997314;28;20034;-85
2023/12/27 00:31:10;;;;;;;13.65;5.97;;;;;;;6.47;100.00;101999.03;4997193;28;20553;-85
2023/12/27 00:33:36;;;;;;;19.92;5.90;;;;;;;6.62;100.00;102017.22;4996862;28;20034;-85
2023/12/27 00:36:01;;;;;;;17.65;6.50;;;;;;;6.64;100.00;102005.06;4996917;28;20034;-85
2023/12/27 00:38:27;;;;;;;16.23;6.43;;;;;;;6.59;100.00;101996.06;4997004;28;20038;-86
2023/12/27 00:40:52;;;;;;;13.48;5.40;;;;;;;6.59;100.00;101987.28;4997073;28;20467;-86
2023/12/27 00:43:17;;;;;;;14.07;5.78;;;;;;;6.61;100.00;101983.91;4996985;28;20113;-86
2023/12/27 00:45:43;;;;;;;20.67;6.50;;;;;;;6.76;100.00;102002.06;4979391;28;20066;-86
2023/12/27 00:48:08;;;;;;;14.15;5.60;;;;;;;6.88;100.00;102000.00;4996919;28;20034;-86
2023/12/27 00:50:34;;;;;;;12.35;5.88;;;;;;;6.74;100.00;101972.22;4996854;28;20034;-86
2023/12/27 00:52:59;;;;;;;11.93;5.38;;;;;;;6.86;100.00;101985.00;4995575;28;20038;-86
2023/12/27 00:55:24;;;;;;;11.18;5.85;;;;;;;6.91;100.00;101994.88;4995471;28;20113;-86
2023/12/27 00:57:50;;;;;;;15.13;5.55;;;;;;;6.90;100.00;101995.72;4996868;28;20450;-86
2023/12/27 01:00:16;;;;;;;15.68;5.38;;;;;;;6.78;100.00;101988.19;4996736;28;20034;-87
2023/12/27 01:02:41;;;;;;;15.35;5.80;;;;;;;6.86;100.00;102006.91;4996693;28;20038;-86
2023/12/27 01:05:07;;;;;;;14.00;5.80;;;;;;;6.75;100.00;102008.16;4996612;28;20037;-87
2023/12/27 01:07:33;;;;;;;13.18;5.43;;;;;;;6.55;100.00;101986.25;4996359;28;20034;-86
2023/12/27 01:09:58;;;;;;;16.70;5.70;;;;;;;6.56;100.00;102001.19;4996176;28;20097;-86
2023/12/27 01:12:24;;;;;;;15.10;5.68;;;;;;;6.44;100.00;101988.41;4995836;28;20041;-86
2023/12/27 01:14:49;;;;;;;14.35;6.13;;;;;;;6.52;100.00;101988.75;4995232;28;20093;-86
2023/12/27 01:17:14;;;;;;;15.93;5.80;;;;;;;6.58;100.00;101993.38;4996648;28;20072;-86
2023/12/27 01:19:40;;;;;;;15.90;5.35;;;;;;;6.35;100.00;101945.97;4996347;28;20391;-86
2023/12/27 01:22:05;;;;;;;16.88;5.88;;;;;;;6.65;100.00;101988.47;4996249;28;20141;-86
2023/12/27 01:24:31;;;;;;;17.67;6.25;;;;;;;6.71;100.00;101988.72;4994953;28;20031;-86
2023/12/27 01:26:56;;;;;;;16.50;6.53;;;;;;;6.63;100.00;101960.31;4996348;28;20073;-86
2023/12/27 01:29:21;;;;;;;15.35;6.00;;;;;;;6.56;100.00;101960.91;4995268;28;20066;-86
2023/12/27 01:31:47;;;;;;;19.35;6.43;;;;;;;6.73;100.00;101973.97;4994992;28;20095;-86
2023/12/27 01:34:12;;;;;;;16.08;6.90;;;;;;;6.76;100.00;101970.53;4995831;28;20035;-86
2023/12/27 01:36:38;;;;;;;17.20;6.13;;;;;;;6.72;100.00;101980.03;4995740;28;20039;-86
2023/12/27 01:39:03;;;;;;;16.90;6.93;;;;;;;6.60;100.00;101958.47;4995980;28;20117;-85
2023/12/27 01:41:28;;;;;;;15.60;6.18;;;;;;;6.72;100.00;101974.78;4994686;28;20038;-86
2023/12/27 01:43:54;;;;;;;16.00;6.88;;;;;;;6.70;100.00;101988.69;4996142;28;20042;-85
2023/12/27 01:46:19;;;;;;;18.73;6.78;;;;;;;6.62;100.00;101969.94;4994717;28;20041;-85
2023/12/27 01:48:45;;;;;;;13.13;6.00;;;;;;;6.61;100.00;101968.16;4995603;28;20034;-86
2023/12/27 01:51:12;;;;;;;17.88;6.93;;;;;;;6.70;100.00;101989.56;4994642;28;20034;-86
2023/12/27 01:53:39;;;;;;;14.60;6.38;;;;;;;6.59;100.00;101989.91;4994530;28;20046;-86
2023/12/27 01:56:06;;;;;;;14.93;6.25;;;;;;;6.58;100.00;101991.63;4995299;28;20034;-86
2023/12/27 01:58:33;;;;;;;19.15;6.20;;;;;;;6.51;100.00;101985.22;4995588;28;20042;-86
2023/12/27 02:00:59;;;;;;;12.68;5.63;;;;;;;6.52;100.00;101986.13;4995626;28;20517;-86
2023/12/27 02:03:24;;;;;;;18.10;6.50;;;;;;;6.38;100.00;101959.25;4995375;28;20030;-86
2023/12/27 02:05:51;;;;;;;16.98;6.18;;;;;;;6.51;100.00;101985.22;4993903;28;20034;-85
2023/12/27 02:08:18;;;;;;;20.27;5.88;;;;;;;6.39;100.00;101960.13;4995450;28;20109;-85
2023/12/27 02:10:44;;;;;;;18.90;5.97;;;;;;;6.41;100.00;101963.72;4995204;28;20427;-86
2023/12/27 02:13:09;;;;;;;15.55;6.07;;;;;;;6.36;100.00;101968.75;4993932;28;20046;-86
2023/12/27 02:15:35;;;;;;;15.00;5.53;;;;;;;6.42;100.00;101983.88;4995603;28;20030;-85
2023/12/27 02:18:03;;;;;;;20.17;5.70;;;;;;;6.19;100.00;101943.47;4994040;28;20042;-85
2023/12/27 02:20:29;;;;;;;14.13;5.28;;;;;;;6.34;100.00;101972.13;4995189;28;20026;-85
2023/12/27 02:22:57;;;;;;;16.13;5.63;;;;;;;6.31;100.00;101983.41;4994627;28;20035;-85
2023/12/27 02:25:23;;;;;;;15.98;5.53;;;;;;;6.27;100.00;101973.59;4994833;28;20033;-85
2023/12/27 02:27:48;;;;;;;16.05;5.57;;;;;;;6.22;100.00;101975.13;4993853;28;20041;-85
2023/12/27 02:30:22;;;;;;;17.50;6.18;;;;;;;6.16;100.00;101959.97;4995005;28;20038;-85
2023/12/27 02:32:51;;;;;;;18.08;6.07;;;;;;;6.07;100.00;101956.91;4993866;28;20034;-85
2023/12/27 02:35:17;;;;;;;13.02;5.78;;;;;;;6.09;100.00;101955.28;4994889;28;20030;-86
2023/12/27 02:37:43;;;;;;;16.45;5.68;;;;;;;6.12;100.00;101959.75;4994948;28;20030;-85
2023/12/27 02:40:09;;;;;;;15.52;5.68;;;;;;;6.08;100.00;101963.97;4994801;28;20034;-86
2023/12/27 02:42:38;;;;;;;17.77;5.25;;;;;;;6.07;100.00;101962.16;4993646;28;20527;-86
2023/12/27 02:45:05;;;;;;;16.15;6.03;;;;;;;6.03;100.00;101948.00;4993479;28;20035;-86
2023/12/27 02:47:30;;;;;;;15.75;6.10;;;;;;;6.01;100.00;101951.38;4994364;28;20034;-86
2023/12/27 02:49:56;;;;;;;16.35;5.55;;;;;;;5.90;100.00;101934.19;4994956;28;20116;-86
2023/12/27 02:52:21;;;;;;;17.23;6.03;;;;;;;5.90;100.00;101942.06;4994716;28;20030;-85
2023/12/27 02:54:47;;;;;;;14.15;5.38;;;;;;;5.91;100.00;101936.91;4993395;28;20049;-85
2023/12/27 02:57:13;;;;;;;14.88;5.43;;;;;;;5.89;100.00;101937.66;4994403;28;20547;-86
2023/12/27 02:59:38;;;;;;;14.13;5.35;;;;;;;5.86;100.00;101924.38;4994590;28;20035;-86
2023/12/27 03:02:04;;;;;;;18.75;6.03;;;;;;;5.87;100.00;101924.47;4994459;28;20089;-86
2023/12/27 03:04:29;;;;;;;16.33;5.72;;;;;;;5.85;100.00;101920.88;4994358;28;20367;-86
2023/12/27 03:06:54;;;;;;;18.45;5.75;;;;;;;5.85;100.00;101918.25;4993269;28;20042;-86
2023/12/27 03:09:20;;;;;;;21.70;5.55;;;;;;;5.85;100.00;101922.59;4992883;28;20450;-86
2023/12/27 03:11:45;;;;;;;15.50;5.47;;;;;;;5.71;100.00;101906.22;4992905;28;20041;-86
2023/12/27 03:14:10;;;;;;;20.00;5.63;;;;;;;5.80;100.00;101911.91;4992477;28;20060;-86
2023/12/27 03:16:36;;;;;;;22.45;6.47;;;;;;;5.82;100.00;101917.19;4994228;28;20117;-85
2023/12/27 03:19:02;;;;;;;20.90;6.43;;;;;;;5.83;100.00;101908.53;4992826;28;20081;-85
2023/12/27 03:21:27;;;;;;;18.65;6.30;;;;;;;5.84;100.00;101908.59;4993921;28;20065;-85
2023/12/27 03:23:53;;;;;;;17.83;5.97;;;;;;;5.77;100.00;101888.13;4993696;28;20038;-85
2023/12/27 03:26:18;;;;;;;18.17;6.10;;;;;;;5.88;100.00;101891.28;4992458;28;20487;-85
2023/12/27 03:28:43;;;;;;;17.23;6.20;;;;;;;5.93;100.00;101885.44;4994092;28;20041;-85
2023/12/27 03:31:09;;;;;;;16.98;5.95;;;;;;;5.90;100.00;101866.00;4976406;28;20458;-85
2023/12/27 03:33:34;;;;;;;17.15;6.82;;;;;;;5.95;100.00;101873.31;4992693;28;20088;-85
2023/12/27 03:36:00;;;;;;;15.13;5.90;;;;;;;5.95;100.00;101870.69;4993226;28;20514;-85
2023/12/27 03:38:26;;;;;;;15.85;6.70;;;;;;;5.83;100.00;101851.72;4992680;28;20046;-85
2023/12/27 03:40:51;;;;;;;15.18;6.38;;;;;;;5.95;100.00;101869.75;4992738;28;20038;-85
2023/12/27 03:43:17;;;;;;;14.20;6.53;;;;;;;5.94;100.00;101866.25;4993965;28;20026;-85
2023/12/27 03:45:42;;;;;;;16.65;6.60;;;;;;;5.95;100.00;101864.50;4992649;28;20372;-85
2023/12/27 03:48:07;;;;;;;16.00;6.10;;;;;;;5.95;100.00;101857.56;4992587;28;20541;-86
2023/12/27 03:50:33;;;;;;;17.70;7.10;;;;;;;5.82;100.00;101825.41;4993814;28;20045;-85
2023/12/27 03:52:58;;;;;;;17.13;6.82;;;;;;;5.83;100.00;101821.97;4992675;28;20045;-85
2023/12/27 03:55:25;;;;;;;17.27;6.60;;;;;;;5.57;100.00;101782.34;4993619;28;20409;-86
2023/12/27 03:57:50;;;;;;;15.30;6.20;;;;;;;5.84;100.00;101824.66;4993601;28;20039;-86
2023/12/27 04:00:16;;;;;;;16.85;6.47;;;;;;;5.68;100.00;101799.44;4993342;28;20035;-86
2023/12/27 04:02:41;;;;;;;17.65;6.78;;;;;;;5.73;100.00;101805.78;4992584;28;20176;-86
2023/12/27 04:05:07;;;;;;;18.10;6.00;;;;;;;5.81;100.00;101816.66;4992255;28;20454;-85
2023/12/27 04:07:32;;;;;;;11.55;6.28;;;;;;;5.65;100.00;101787.91;4992234;28;20497;-85
2023/12/27 04:09:58;;;;;;;16.00;6.15;;;;;;;5.89;100.00;101822.25;4992561;28;20096;-85
2023/12/27 04:12:23;;;;;;;15.52;6.25;;;;;;;5.80;100.00;101798.22;4992290;28;20042;-86
2023/12/27 04:14:49;;;;;;;15.25;6.30;;;;;;;5.88;100.00;101807.34;4993073;28;20109;-86
2023/12/27 04:17:15;;;;;;;15.07;6.57;;;;;;;5.85;100.00;101812.44;4992291;28;20093;-85
2023/12/27 04:19:40;;;;;;;16.42;6.53;;;;;;;5.83;100.00;101801.91;4993127;28;20038;-85
2023/12/27 04:22:06;;;;;;;16.67;6.60;;;;;;;5.77;100.00;101797.25;4993387;28;20364;-85
2023/12/27 04:24:31;;;;;;;16.33;6.53;;;;;;;5.82;100.00;101807.03;4993241;28;20395;-86
2023/12/27 04:26:56;;;;;;;16.73;6.43;;;;;;;5.71;100.00;101789.13;4992955;28;20454;-86
2023/12/27 04:29:22;;;;;;;15.80;5.95;;;;;;;5.73;100.00;101795.31;4993368;28;20038;-86
2023/12/27 04:31:47;;;;;;;19.85;6.90;;;;;;;5.76;100.00;101800.69;4993396;28;20041;-86
2023/12/27 04:34:13;;;;;;;17.50;5.85;;;;;;;5.58;100.00;101765.78;4993028;28;20038;-86
2023/12/27 04:36:38;;;;;;;16.50;6.32;;;;;;;5.77;100.00;101801.59;4993297;28;20530;-86
2023/12/27 04:39:03;;;;;;;13.30;6.78;;;;;;;5.73;100.00;101805.78;4992992;28;20027;-86
2023/12/27 04:41:29;;;;;;;18.83;6.32;;;;;;;5.66;100.00;101790.63;4991968;28;20057;-86
2023/12/27 04:43:54;;;;;;;16.88;6.00;;;;;;;5.72;100.00;101806.63;4993195;28;20114;-86
2023/12/27 04:46:20;;;;;;;16.38;6.15;;;;;;;5.60;100.00;101785.09;4994610;28;20037;-86
2023/12/27 04:48:45;;;;;;;18.50;6.30;;;;;;;5.66;100.00;101788.00;4995720;28;20089;-86
2023/12/27 04:51:12;;;;;;;16.67;6.07;;;;;;;5.57;100.00;101782.34;4995590;28;20106;-86
2023/12/27 04:53:37;;;;;;;19.55;6.45;;;;;;;5.70;100.00;101799.53;4996734;28;20030;-86
2023/12/27 04:56:03;;;;;;;13.07;6.00;;;;;;;5.68;100.00;101785.44;4994899;28;20034;-86
2023/12/27 04:58:28;;;;;;;16.50;6.10;;;;;;;5.72;100.00;101783.03;4995377;28;20034;-86
2023/12/27 05:00:53;;;;;;;20.52;7.32;;;;;;;5.77;100.00;101792.00;4996439;28;20026;-86
2023/12/27 05:03:19;;;;;;;15.57;6.30;;;;;;;5.71;100.00;101762.00;4996427;28;20537;-85
2023/12/27 05:05:44;;;;;;;14.15;5.70;;;;;;;5.64;100.00;101742.44;4996562;28;20069;-86
2023/12/27 05:08:09;;;;;;;13.43;5.53;;;;;;;5.86;100.00;101775.78;4995403;28;20550;-86
2023/12/27 05:10:35;;;;;;;15.27;5.35;;;;;;;5.66;100.00;101737.31;4996292;28;20030;-85
2023/12/27 05:13:00;;;;;;;14.73;5.97;;;;;;;5.70;100.00;101740.13;4996006;28;20070;-85
2023/12/27 05:15:25;;;;;;;20.13;5.80;;;;;;;5.81;100.00;101758.94;4996572;28;20475;-86
2023/12/27 05:17:51;;;;;;;11.82;5.40;;;;;;;5.80;100.00;101756.25;4996410;28;20034;-85
2023/12/27 05:20:16;;;;;;;19.10;5.65;;;;;;;5.63;100.00;101724.94;4996312;28;20041;-85
2023/12/27 05:22:41;;;;;;;17.98;5.55;;;;;;;5.67;100.00;101719.00;4996643;28;20475;-85
2023/12/27 05:25:07;;;;;;;13.95;5.40;;;;;;;5.75;100.00;101727.22;4996233;28;20030;-85
2023/12/27 05:27:33;;;;;;;16.45;5.20;;;;;;;5.91;100.00;101760.25;4996116;28;20382;-85
2023/12/27 05:29:58;;;;;;;17.58;5.47;;;;;;;5.83;100.00;101740.69;4996125;28;20042;-85
2023/12/27 05:32:24;;;;;;;13.43;5.45;;;;;;;5.91;100.00;101750.69;4996111;28;20368;-85
2023/12/27 05:34:52;;;;;;;15.52;5.28;;;;;;;5.77;100.00;101728.16;4996077;28;20030;-85
2023/12/27 05:37:18;;;;;;;14.40;5.47;;;;;;;5.81;100.00;101737.06;4994458;28;20100;-86
2023/12/27 05:39:43;;;;;;;12.65;5.38;;;;;;;5.89;100.00;101754.94;4995112;28;20054;-85
2023/12/27 05:42:09;;;;;;;20.98;5.88;;;;;;;5.90;100.00;101751.47;4995972;28;20035;-86
2023/12/27 05:44:35;;;;;;;21.63;6.28;;;;;;;5.88;100.00;101741.78;4995838;28;20038;-86
2023/12/27 05:47:00;;;;;;;18.42;6.07;;;;;;;5.74;100.00;101712.31;4994726;28;20037;-86
2023/12/27 05:49:26;;;;;;;14.90;5.38;;;;;;;5.77;100.00;101710.69;4995594;28;20057;-86
2023/12/27 05:51:51;;;;;;;17.83;5.30;;;;;;;5.90;100.00;101724.34;4995483;28;20030;-86
2023/12/27 05:54:18;;;;;;;15.65;5.28;;;;;;;5.84;100.00;101718.84;4978287;28;20038;-86
2023/12/27 05:56:43;;;;;;;16.05;5.15;;;;;;;5.76;100.00;101702.78;4995446;28;20034;-86
2023/12/27 05:59:09;;;;;;;14.30;4.50;;;;;;;5.67;100.00;101686.66;4993405;28;20116;-87
2023/12/27 06:01:34;;;;;;;18.83;5.15;;;;;;;5.82;100.00;101715.25;4994595;28;20030;-87
2023/12/27 06:04:03;;;;;;;12.50;4.78;;;;;;;5.86;100.00;101710.19;4995575;28;20038;-87
2023/12/27 06:06:29;;;;;;;16.30;4.88;;;;;;;5.88;100.00;101711.19;4994264;28;20414;-86
2023/12/27 06:08:55;;;;;;;12.88;4.75;;;;;;;5.90;100.00;101703.38;4995638;28;20096;-87
2023/12/27 06:11:20;;;;;;;20.02;4.93;;;;;;;5.71;100.00;101664.97;4978105;28;20038;-87
2023/12/27 06:13:45;;;;;;;21.25;5.20;;;;;;;5.81;100.00;101688.13;4994093;28;20050;-86
2023/12/27 06:16:11;;;;;;;17.52;4.75;;;;;;;5.83;100.00;101682.97;4995666;28;20030;-87
2023/12/27 06:18:36;;;;;;;14.88;4.68;;;;;;;5.89;100.00;101693.72;4995426;28;20030;-87
2023/12/27 06:21:02;;;;;;;15.40;4.85;;;;;;;5.88;100.00;101692.81;4995353;28;20034;-87
2023/12/27 06:23:28;;;;;;;15.57;5.07;;;;;;;5.72;100.00;101661.50;4995320;28;20463;-87
2023/12/27 06:25:54;;;;;;;16.30;4.90;;;;;;;5.85;100.00;101681.31;4995700;28;20550;-87
2023/12/27 06:28:19;;;;;;;14.50;4.90;;;;;;;5.69;100.00;101648.25;4995480;28;20042;-87
2023/12/27 06:30:45;;;;;;;17.10;5.53;;;;;;;5.87;100.00;101671.78;4995736;28;20156;-87
2023/12/27 06:33:11;;;;;;;11.00;4.30;;;;;;;5.86;100.00;101657.75;4978654;28;20042;-87
2023/12/27 06:35:36;;;;;;;13.40;4.78;;;;;;;5.85;100.00;101653.34;4977793;28;20046;-87
2023/12/27 06:38:01;;;;;;;10.90;5.28;;;;;;;5.80;100.00;101630.38;4994722;28;20035;-87
2023/12/27 06:40:27;;;;;;;13.65;4.68;;;;;;;5.92;100.00;101644.06;4993703;28;20023;-88
2023/12/27 06:42:53;;;;;;;11.73;5.10;;;;;;;5.88;100.00;101636.84;4994830;28;20053;-88
2023/12/27 06:45:18;;;;;;;13.63;4.97;;;;;;;5.92;100.00;101633.56;4977167;28;20041;-87
2023/12/27 06:47:43;;;;;;;11.88;5.07;;;;;;;5.89;100.00;101622.91;4993266;28;20390;-87
2023/12/27 06:50:09;;;;;;;14.15;5.38;;;;;;;5.97;100.00;101630.28;4993492;28;20045;-87
2023/12/27 06:52:34;;;;;;;15.60;5.50;;;;;;;6.01;100.00;101633.94;4994397;28;20046;-86
2023/12/27 06:55:00;;;;;;;11.63;5.20;;;;;;;5.86;100.00;101604.41;4994444;28;20038;-87
2023/12/27 06:57:25;;;;;;;12.30;5.38;;;;;;;6.00;100.00;101625.19;4994510;28;20356;-88
2023/12/27 06:59:50;;;;;;;13.23;5.20;;;;;;;5.81;100.00;101579.72;4994630;28;20038;-87
2023/12/27 07:02:16;;;;;;;14.68;5.70;;;;;;;6.00;100.00;101617.31;4993284;28;20041;-87
2023/12/27 07:04:43;;;;;;;12.38;5.80;;;;;;;5.91;100.00;101605.47;4993132;28;20117;-87
2023/12/27 07:07:08;;;;;;;12.52;5.95;;;;;;;6.02;100.00;101613.00;4994384;28;20026;-87
2023/12/27 07:09:34;;;;;;;9.57;5.40;;;;;;;5.93;100.00;101596.91;4994178;28;20038;-87
2023/12/27 07:11:59;;;;;;;9.55;5.57;;;;;;;6.08;100.00;101622.88;4994408;28;20419;-87
2023/12/27 07:14:25;;;;;;;9.98;5.55;;;;;;;6.09;100.00;101614.19;4993881;28;20104;-87
2023/12/27 07:16:50;;;;;;;11.40;5.88;;;;;;;5.98;100.00;101595.34;4994245;28;20030;-87
2023/12/27 07:19:15;;;;;;;16.40;5.93;;;;;;;6.09;100.00;101605.41;4993303;28;20418;-87
2023/12/27 07:21:41;;;;;;;7.78;5.38;;;;;;;6.13;100.00;101607.31;4993220;28;20080;-87
2023/12/27 07:24:07;;;;;;;12.43;5.65;;;;;;;6.19;100.00;101604.94;4992875;28;20042;-87
2023/12/27 07:26:32;;;;;;;9.43;5.70;;;;;;;6.18;100.00;101611.03;4992665;28;20463;-87
2023/12/27 07:28:58;;;;;;;12.82;5.93;;;;;;;6.14;100.00;101596.88;4994102;28;20037;-87
2023/12/27 07:31:23;;;;;;;8.93;5.82;;;;;;;6.16;100.00;101602.19;4994036;28;20041;-87
2023/12/27 07:33:49;;;;;;;13.05;6.32;;;;;;;6.23;100.00;101598.97;4993755;28;20030;-87
2023/12/27 07:36:16;;;;;;;9.27;6.00;;;;;;;6.24;100.00;101595.53;4994009;28;20117;-87
2023/12/27 07:38:41;;;;;;;10.77;6.03;;;;;;;6.21;100.00;101583.19;4992663;28;20038;-87
2023/12/27 07:41:06;;;;;;;9.27;6.07;;;;;;;6.31;100.00;101602.81;4993646;28;20149;-87
2023/12/27 07:43:32;;;;;;;10.57;6.50;;;;;;;6.29;100.00;101578.22;4994138;28;20041;-87
2023/12/27 07:45:58;;;;;;;10.25;6.68;;;;;;;6.28;100.00;101579.97;4992576;28;20117;-87
2023/12/27 07:48:23;;;;;;;9.27;6.22;;;;;;;6.36;100.00;101595.13;4976284;28;20061;-87
2023/12/27 07:50:50;;;;;;;10.65;7.50;;;;;;;6.34;100.00;101589.81;4992376;28;20108;-87
2023/12/27 07:53:16;;;;;;;13.77;7.55;;;;;;;6.42;100.00;101592.72;4993887;28;20255;-88
2023/12/27 07:55:42;;;;;;;11.65;7.25;;;;;;;6.46;100.00;101586.75;4992489;28;20038;-88
2023/12/27 07:58:08;;;;;;;10.88;7.57;;;;;;;6.30;100.00;101566.03;4992489;28;20478;-88
2023/12/27 08:00:34;;;;;;;11.25;7.38;;;;;;;6.48;100.00;101585.13;4993471;28;20045;-89
2023/12/27 08:02:59;;;;;;;12.18;7.68;;;;;;;6.47;100.00;101584.22;4992674;28;20031;-87
2023/12/27 08:05:25;;;;;;;10.75;7.60;;;;;;;6.51;100.00;101587.88;4993712;28;20065;-90
2023/12/27 08:07:51;;;;;;;12.15;7.93;;;;;;;6.18;100.00;101525.31;4993275;28;20475;-88
2023/12/27 08:10:16;;;;;;;11.93;7.63;;;;;;;6.58;100.00;101583.72;4992377;28;20130;-87
2023/12/27 08:12:41;;;;;;;11.45;8.00;;;;;;;6.60;100.00;101584.69;4991995;28;20395;-90
2023/12/27 08:15:07;;;;;;;11.70;8.23;;;;;;;6.63;100.00;101585.69;4992327;28;20038;-85
2023/12/27 08:17:33;;;;;;;11.23;7.82;;;;;;;6.64;100.00;101563.88;4993195;28;20085;-87
2023/12/27 08:19:59;;;;;;;14.18;8.05;;;;;;;6.66;100.00;101572.69;4976133;28;20140;-89
2023/12/27 08:22:24;;;;;;;12.10;7.95;;;;;;;6.72;100.00;101577.25;4995139;28;20034;-87
2023/12/27 08:24:50;;;;;;;13.70;7.43;;;;;;;6.75;100.00;101569.50;4996915;28;20038;-87
2023/12/27 08:27:15;;;;;;;12.80;8.15;;;;;;;6.78;100.00;101567.91;4995655;28;20053;-86
2023/12/27 08:29:41;;;;;;;13.40;8.55;;;;;;;6.78;100.00;101552.13;4996641;28;20082;-86
2023/12/27 08:32:08;;;;;;;12.55;8.00;;;;;;;6.80;100.00;101541.69;4995889;28;20093;-86
2023/12/27 08:34:33;;;;;;;14.05;7.88;;;;;;;6.89;100.00;101543.75;4995224;28;20049;-86
2023/12/27 08:36:58;;;;;;;12.40;8.40;;;;;;;6.90;100.00;101527.19;4996663;28;20038;-86
2023/12/27 08:39:24;;;;;;;14.55;8.02;;;;;;;6.97;100.00;101529.16;5000400;28;20434;-86
2023/12/27 08:41:50;;;;;;;12.77;7.30;;;;;;;7.01;100.00;101536.31;4996850;28;20065;-86
2023/12/27 08:44:16;;;;;;;10.65;7.10;;;;;;;7.06;100.00;101532.13;4979150;28;20394;-86
2023/12/27 08:46:41;;;;;;;12.13;6.95;;;;;;;7.02;100.00;101517.06;4996732;28;20042;-88
2023/12/27 08:49:07;;;;;;;11.50;6.72;;;;;;;7.14;100.00;101525.41;4996503;28;20382;-87
2023/12/27 08:51:33;;;;;;;12.32;6.95;;;;;;;7.19;100.00;101528.19;5009997;28;20463;-90
2023/12/27 08:53:59;;;;;;;11.85;6.22;;;;;;;7.21;100.00;101527.41;5015520;28;20033;-95
2023/12/27 08:56:24;;;;;;;12.15;7.22;;;;;;;7.18;100.00;101519.41;5016233;28;20060;-92
2023/12/27 08:58:50;;;;;;;14.85;6.43;;;;;;;7.33;100.00;101515.56;5016692;28;20180;-96
2023/12/27 09:01:16;;;;;;;9.68;5.80;;;;;;;7.37;100.00;101499.06;5000241;28;20525;-94
2023/12/27 09:03:42;;;;;;;11.48;6.35;;;;;;;7.38;100.00;101521.88;5019328;28;20080;-89
2023/12/27 09:06:08;;;;;;;11.70;6.47;;;;;;;7.36;100.00;101519.16;5020372;28;20026;-89
2023/12/27 09:08:37;;;;;;;9.82;6.57;;;;;;;7.41;100.00;101503.53;5019521;28;20038;-93
2023/12/27 09:11:05;;;;;;;10.75;6.63;;;;;;;7.33;100.00;101502.41;5035976;28;20034;-90
2023/12/27 09:13:33;;;;;;;9.70;6.03;;;;;;;7.43;100.00;101512.38;5023268;28;20218;-92
2023/12/27 09:16:04;;;;;;;8.25;5.97;;;;;;;7.39;100.00;101506.13;5020906;28;20037;-89
2023/12/27 09:18:29;;;;;;;9.73;5.88;;;;;;;7.40;100.00;101510.53;5035093;28;20037;-87
2023/12/27 09:20:55;;;;;;;9.73;6.28;;;;;;;7.45;100.00;101527.38;5020215;28;20041;-90
2023/12/27 09:23:20;;;;;;;9.57;5.35;;;;;;;7.43;100.00;101494.00;5036331;28;20478;-85
2023/12/27 09:25:46;;;;;;;9.55;5.22;;;;;;;7.42;100.00;101474.69;5016140;28;20042;-86
2023/12/27 09:28:11;;;;;;;9.20;5.53;;;;;;;7.44;100.00;101469.47;5019787;28;20455;-88
2023/12/27 09:30:38;;;;;;;8.05;5.10;;;;;;;7.45;100.00;101477.44;5018499;28;20034;-87
2023/12/27 09:33:04;;;;;;;7.13;5.18;;;;;;;7.50;100.00;101490.72;5036280;28;20466;-86
2023/12/27 09:35:29;;;;;;;8.75;5.22;;;;;;;7.56;100.00;101492.66;5019825;28;20064;-84
2023/12/27 09:37:55;;;;;;;12.98;5.70;;;;;;;7.56;100.00;101490.03;5000100;28;20159;-88
2023/12/27 09:40:20;;;;;;;8.85;5.60;;;;;;;7.55;100.00;101478.63;5019107;28;20034;-87
2023/12/27 09:42:48;;;;;;;7.78;4.68;;;;;;;7.36;100.00;101453.44;5019150;28;20029;-86
2023/12/27 09:45:18;;;;;;;6.85;4.70;;;;;;;7.57;100.00;101479.56;5004024;28;20073;-86
2023/12/27 09:47:46;;;;;;;8.13;5.22;;;;;;;7.56;100.00;101475.16;4994593;28;20026;-86
2023/12/27 09:50:12;;;;;;;11.75;4.72;;;;;;;7.53;100.00;101456.63;4995526;28;20088;-83
2023/12/27 09:52:39;;;;;;;7.80;4.82;;;;;;;7.60;100.00;101463.88;4994471;28;20125;-83
2023/12/27 09:55:05;;;;;;;7.95;4.95;;;;;;;7.63;100.00;101466.63;4994571;28;20034;-83
2023/12/27 09:57:31;;;;;;;8.32;4.95;;;;;;;7.50;100.00;101443.41;4994596;28;20096;-83
2023/12/27 09:59:58;;;;;;;8.18;4.78;;;;;;;7.56;100.00;101442.69;4994890;28;20043;-84
2023/12/27 10:02:28;;;;;;;7.68;4.70;;;;;;;7.69;100.00;101461.53;4994062;28;20092;-84
2023/12/27 10:05:11;;;;;;;9.75;4.68;;;;;;;7.62;100.00;101446.41;4996502;28;20027;-83
2023/12/27 10:07:39;;;;;;;11.27;5.13;;;;;;;7.77;100.00;101470.59;4995565;28;20056;-84
2023/12/27 10:10:07;;;;;;;9.88;4.70;;;;;;;7.61;100.00;101449.88;4993872;28;20439;-86
2023/12/27 10:12:33;;;;;;;10.45;4.90;;;;;;;7.79;100.00;101462.72;4995202;28;20531;-82
2023/12/27 10:14:59;;;;;;;10.60;5.00;;;;;;;7.81;100.00;101460.16;4995315;28;20117;-84
2023/12/27 10:17:24;;;;;;;8.18;4.40;;;;;;;7.74;100.00;101441.53;4994070;28;20118;-84
2023/12/27 10:19:49;;;;;;;8.23;4.60;;;;;;;7.85;100.00;101454.16;4994907;28;20062;-83
2023/12/27 10:22:15;;;;;;;6.70;4.45;;;;;;;7.86;100.00;101456.81;4977728;28;20402;-83
2023/12/27 10:24:41;;;;;;;5.38;4.10;;;;;;;7.79;100.00;101436.41;4997382;28;20466;-85
2023/12/27 10:27:08;;;;;;;6.30;4.28;;;;;;;7.91;100.00;101457.84;5014029;28;20064;-85
2023/12/27 10:29:34;;;;;;;8.40;4.30;;;;;;;7.90;100.00;101444.66;5014085;28;20433;-85
2023/12/27 10:32:00;;;;;;;6.22;4.43;;;;;;;7.95;100.00;101437.78;5014102;28;20470;-83
2023/12/27 10:34:26;;;;;;;8.02;4.30;;;;;;;7.99;100.00;101431.78;5014053;28;20554;-83
2023/12/27 10:36:54;;;;;;;6.90;4.10;;;;;;;8.00;100.00;101423.94;5015534;28;20069;-86
2023/12/27 10:39:20;;;;;;;6.60;4.32;;;;;;;8.00;100.00;101407.25;5014494;28;20026;-85
2023/12/27 10:41:45;;;;;;;8.15;3.92;;;;;;;8.02;100.00;101411.72;5015711;28;20064;-84
2023/12/27 10:44:11;;;;;;;8.18;3.97;;;;;;;8.14;100.00;101429.63;5022028;28;20382;-84
2023/12/27 10:46:39;;;;;;;7.00;3.60;;;;;;;8.17;100.00;101407.75;5032723;28;20077;-83
2023/12/27 10:49:05;;;;;;;5.47;3.85;;;;;;;8.16;100.00;101398.06;5034237;28;20033;-84
2023/12/27 10:51:37;;;;;;;8.05;3.65;;;;;;;8.16;100.00;101396.34;5033560;28;20390;-84
2023/12/27 10:54:03;;;;;;;;;;;;;;;8.34;100.00;101413.50;5033048;28;20025;-84
2023/12/27 10:56:39;;;;;;;5.25;3.05;;;;;;;8.35;100.00;101412.66;5033847;28;19920;-83
2023/12/27 10:59:05;;;;;;;6.20;3.03;;;;;;;8.42;100.00;101404.13;5033758;28;20033;-81
2023/12/27 11:01:35;;;;;;;8.80;3.10;;;;;;;8.42;100.00;101390.97;5033907;28;20025;-84
2023/12/27 11:04:06;;;;;;;6.32;2.50;;;;;;;8.53;100.00;101397.44;5033681;28;20041;-83
2023/12/27 11:06:35;;;;;;;9.93;2.90;;;;;;;8.47;100.00;101376.16;5032166;28;20128;-83
2023/12/27 11:09:06;;;;;;;11.70;2.80;;;;;;;8.62;100.00;101386.25;5033587;28;20033;-83
2023/12/27 11:11:39;;;;;;;7.80;2.85;;;;;;;8.61;100.00;101373.91;5032360;28;20038;-83
2023/12/27 11:14:05;;;;;;;;;;;;;;;8.69;100.00;101369.75;5033310;28;20056;-86